Time;durP1;ratioP1;P1;durP2;ratioP2;P2;SDS_P1;SDS_P2;PMS_P1;PMS_P2;Temp;Humidity;BMP_temperature;BMP_pressure;BME280_temperature;BME280_humidity;BME280_pressure;Samples;Min_cycle;Max_cycle;Signal;HPM_P1;HPM_P2
2022/11/01 00:01:26;;;;;;;;;;;;;;;11.73;100.00;96487.03;5066596;28;19955;-71
2022/11/01 00:03:52;;;;;;;;;;;;;;;11.72;100.00;96478.38;5069765;28;19965;-71
2022/11/01 00:06:18;;;;;;;;;;;;;;;11.74;100.00;96480.78;5062433;28;19964;-71
2022/11/01 00:08:44;;;;;;;;;;;;;;;11.73;100.00;96473.91;5064021;28;20027;-72
2022/11/01 00:11:11;;;;;;;;;;;;;;;11.72;100.00;96482.81;5069430;28;19960;-71
2022/11/01 00:13:37;;;;;;;;;;;;;;;11.71;100.00;96481.22;5065483;28;19957;-71
2022/11/01 00:16:03;;;;;;;;;;;;;;;11.70;100.00;96479.63;5061196;28;19960;-71
2022/11/01 00:18:29;;;;;;;;;;;;;;;11.70;100.00;96484.88;5062621;28;19968;-72
2022/11/01 00:20:55;;;;;;;;;;;;;;;11.68;100.00;96482.47;5064042;28;19957;-71
2022/11/01 00:23:21;;;;;;;;;;;;;;;11.68;100.00;96489.56;5070404;28;19987;-72
2022/11/01 00:25:47;;;;;;;;;;;;;;;11.65;100.00;96482.91;5066559;28;19995;-71
2022/11/01 00:28:13;;;;;;;;;;;;;;;11.67;100.00;96490.56;5065696;28;19968;-71
2022/11/01 00:30:39;;;;;;;;;;;;;;;11.67;100.00;96486.09;5066235;28;19975;-72
2022/11/01 00:33:05;;;;;;;;;;;;;;;11.68;100.00;96486.91;5070603;28;19957;-71
2022/11/01 00:35:32;;;;;;;;;;;;;;;11.68;100.00;96489.56;5060224;28;19984;-71
2022/11/01 00:37:58;;;;;;;;;;;;;;;11.68;100.00;96494.81;5060637;28;20336;-72
2022/11/01 00:40:24;;;;;;;;;;;;;;;11.67;100.00;96487.94;5063166;28;20403;-72
2022/11/01 00:42:50;;;;;;;;;;;;;;;11.66;100.00;96488.97;5065207;28;20402;-71
2022/11/01 00:45:16;;;;;;;;;;;;;;;11.68;100.00;96486.91;5068463;28;19967;-71
2022/11/01 00:47:42;;;;;;;;;;;;;;;11.65;100.00;96490.78;5065410;28;20001;-71
2022/11/01 00:50:08;;;;;;;;;;;;;;;11.65;100.00;96493.41;5060386;28;20390;-72
2022/11/01 00:52:34;;;;;;;;;;;;;;;11.66;100.00;96494.22;5066093;28;19963;-72
2022/11/01 00:55:00;;;;;;;;;;;;;;;11.65;100.00;96508.38;5067427;28;19961;-72
2022/11/01 00:57:26;;;;;;;;;;;;;;;11.63;100.00;96505.16;5046122;28;19955;-71
2022/11/01 00:59:51;;;;;;;;;;;;;;;11.59;100.00;96489.06;5058694;28;20432;-72
2022/11/01 01:02:17;;;;;;;;;;;;;;;11.52;100.00;96507.50;5063307;28;19994;-71
2022/11/01 01:04:43;;;;;;;;;;;;;;;11.48;100.00;96495.06;5067579;28;19959;-72
2022/11/01 01:07:10;;;;;;;;;;;;;;;11.44;100.00;96494.69;5064995;28;19992;-72
2022/11/01 01:09:36;;;;;;;;;;;;;;;11.44;100.00;96492.06;5062848;28;19974;-71
2022/11/01 01:12:02;;;;;;;;;;;;;;;11.43;100.00;96493.09;5064636;28;19965;-71
2022/11/01 01:14:28;;;;;;;;;;;;;;;11.43;100.00;96493.09;5064615;28;19966;-71
2022/11/01 01:16:54;;;;;;;;;;;;;;;11.41;100.00;96495.16;5065529;28;19965;-71
2022/11/01 01:19:20;;;;;;;;;;;;;;;11.42;100.00;96491.47;5058835;28;20306;-72
2022/11/01 01:21:45;;;;;;;;;;;;;;;11.43;100.00;96492.31;5041031;28;20331;-72
2022/11/01 01:24:11;;;;;;;;;;;;;;;11.43;100.00;96498.34;5067233;28;20050;-71
2022/11/01 01:26:37;;;;;;;;;;;;;;;11.44;100.00;96488.66;5065639;28;19960;-72
2022/11/01 01:29:03;;;;;;;;;;;;;;;11.44;100.00;96492.06;5059006;28;19971;-71
2022/11/01 01:31:29;;;;;;;;;;;;;;;11.44;100.00;96480.75;5063047;28;20043;-71
2022/11/01 01:33:56;;;;;;;;;;;;;;;11.43;100.00;96479.19;5064563;28;19964;-71
2022/11/01 01:36:22;;;;;;;;;;;;;;;11.43;100.00;96474.72;5063779;28;20313;-71
2022/11/01 01:38:51;;;;;;;;;;;;;;;11.42;100.00;96470.47;5060027;28;20022;-72
2022/11/01 01:44:22;;;;;;;;;;;;;;;11.45;100.00;96480.56;5066582;28;19973;-72
2022/11/01 01:46:48;;;;;;;;;;;;;;;11.46;100.00;96476.09;5064225;28;20322;-71
2022/11/01 01:49:14;;;;;;;;;;;;;;;11.47;100.00;96473.25;5062182;28;19972;-72
2022/11/01 01:51:40;;;;;;;;;;;;;;;11.47;100.00;96480.34;5057009;28;20433;-71
2022/11/01 01:54:05;;;;;;;;;;;;;;;11.48;100.00;96479.28;5063026;28;19962;-71
2022/11/01 01:56:33;;;;;;;;;;;;;;;11.50;100.00;96479.88;5065546;28;20004;-72
2022/11/01 01:59:02;;;;;;;;;;;;;;;11.50;100.00;96480.66;5059642;28;19961;-71
2022/11/01 02:01:28;;;;;;;;;;;;;;;11.52;100.00;96467.31;5060084;28;19956;-72
2022/11/01 02:03:54;;;;;;;;;;;;;;;11.50;100.00;96470.16;5065904;28;19996;-71
2022/11/01 02:06:21;;;;;;;;;;;;;;;11.51;100.00;96482.28;5065623;28;20410;-71
2022/11/01 02:08:50;;;;;;;;;;;;;;;11.51;100.00;96484.13;5023254;28;19972;-72
2022/11/01 02:11:17;;;;;;;;;;;;;;;11.53;100.00;96476.81;5019138;28;19979;-74
2022/11/01 02:13:43;;;;;;;;;;;;;;;11.52;100.00;96467.31;5026823;28;19959;-71
2022/11/01 02:16:28;;;;;;;;;;;;;;;11.51;100.00;96465.75;5026544;28;19960;-72
2022/11/01 02:18:53;;;;;;;;;;;;;;;11.49;100.00;96465.94;5028364;28;19956;-72
2022/11/01 02:21:22;;;;;;;;;;;;;;;11.49;100.00;96468.56;5028087;28;19955;-71
2022/11/01 02:23:51;;;;;;;;;;;;;;;11.51;100.00;96463.91;5025924;28;19953;-71
2022/11/01 02:26:26;;;;;;;;;;;;;;;11.51;100.00;96474.41;5028147;28;19957;-71
2022/11/01 02:29:02;;;;;;;;;;;;;;;11.52;100.00;96483.09;5028070;28;19977;-71
2022/11/01 02:31:37;;;;;;;;;;;;;;;11.53;100.00;96489.94;5028047;28;20406;-71
2022/11/01 02:34:15;;;;;;;;;;;;;;;11.54;100.00;96489.72;5022849;28;19952;-71
2022/11/01 02:36:47;;;;;;;;;;;;;;;11.54;100.00;96491.53;5027057;28;19973;-71
2022/11/01 02:39:13;;;;;;;;;;;;;;;11.54;100.00;96496.78;5027484;28;19969;-71
2022/11/01 02:41:44;;;;;;;;;;;;;;;11.53;100.00;96495.22;5024740;28;19953;-71
2022/11/01 02:44:22;;;;;;;;;;;;;;;11.55;100.00;96495.78;5028194;28;19961;-71
2022/11/01 02:47:00;;;;;;;;;;;;;;;11.55;100.00;96485.28;5026891;28;19953;-71
2022/11/01 02:49:31;;;;;;;;;;;;;;;11.55;100.00;96482.66;5028984;28;20461;-71
2022/11/01 02:51:58;;;;;;;;;;;;;;;11.56;100.00;96476.38;5027781;28;19951;-72
2022/11/01 02:54:30;;;;;;;;;;;;;;;11.57;100.00;96483.22;5027710;28;19955;-71
2022/11/01 02:56:58;;;;;;;;;;;;;;;11.60;100.00;96479.34;5022499;28;19958;-72
2022/11/01 02:59:27;;;;;;;;;;;;;;;11.61;100.00;96480.94;5028174;28;20342;-71
2022/11/01 03:01:59;;;;;;;;;;;;;;;11.62;100.00;96485.97;5030721;28;19984;-72
2022/11/01 03:04:25;;;;;;;;;;;;;;;11.64;100.00;96493.66;5029150;28;19961;-71
2022/11/01 03:06:56;;;;;;;;;;;;;;;11.64;100.00;96498.91;5034097;28;20002;-71
2022/11/01 03:09:22;;;;;;;;;;;;;;;11.65;100.00;96498.66;5060663;28;19973;-72
2022/11/01 03:11:51;;;;;;;;;;;;;;;11.65;100.00;96503.91;5070685;28;19970;-71
2022/11/01 03:14:19;;;;;;;;;;;;;;;11.68;100.00;96502.69;5065853;28;19961;-72
2022/11/01 03:16:45;;;;;;;;;;;;;;;11.69;100.00;96504.28;5059616;28;19958;-71
2022/11/01 03:19:31;;;;;;;;;;;;;;;11.69;100.00;96510.31;5048555;28;20443;-71
2022/11/01 03:21:57;;;;;;;;;;;;;;;11.69;100.00;96512.94;5015298;28;19977;-71
2022/11/01 03:24:27;;;;;;;;;;;;;;;11.71;100.00;96518.78;5073077;28;20443;-71
2022/11/01 03:27:02;;;;;;;;;;;;;;;11.71;100.00;96517.97;5066015;28;19955;-72
2022/11/01 03:29:30;;;;;;;;;;;;;;;11.73;100.00;96521.19;5062273;28;19978;-72
2022/11/01 03:31:57;;;;;;;;;;;;;;;11.72;100.00;96514.34;5065824;28;19948;-71
2022/11/01 03:34:24;;;;;;;;;;;;;;;11.71;100.00;96521.41;5070953;28;19958;-72
2022/11/01 03:36:51;;;;;;;;;;;;;;;11.69;100.00;96523.47;5062673;28;19970;-71
2022/11/01 03:39:21;;;;;;;;;;;;;;;11.70;100.00;96532.16;5061299;28;19962;-73
2022/11/01 03:41:49;;;;;;;;;;;;;;;11.67;100.00;96525.50;5065978;28;19959;-72
2022/11/01 03:44:15;;;;;;;;;;;;;;;11.69;100.00;96533.97;5070327;28;19958;-71
2022/11/01 03:46:42;;;;;;;;;;;;;;;11.71;100.00;96546.88;5068262;28;20330;-71
2022/11/01 03:49:08;;;;;;;;;;;;;;;11.71;100.00;96546.88;5064515;28;20331;-72
2022/11/01 03:51:34;;;;;;;;;;;;;;;11.72;100.00;96561.63;5069217;28;19960;-72
2022/11/01 03:54:00;;;;;;;;;;;;;;;11.72;100.00;96559.00;5063506;28;19964;-72
2022/11/01 03:56:25;;;;;;;;;;;;;;;11.71;100.00;96558.19;5060891;28;20433;-72
2022/11/01 03:58:51;;;;;;;;;;;;;;;11.73;100.00;96560.59;5063750;28;19958;-72
2022/11/01 04:01:17;;;;;;;;;;;;;;;11.73;100.00;96556.13;5063793;28;20011;-71
2022/11/01 04:03:43;;;;;;;;;;;;;;;11.74;100.00;96555.13;5065439;28;19962;-71
2022/11/01 04:06:09;;;;;;;;;;;;;;;11.75;100.00;96559.34;5064795;28;19959;-72
2022/11/01 04:08:35;;;;;;;;;;;;;;;11.77;100.00;96559.13;5065643;28;20083;-71
2022/11/01 04:11:01;;;;;;;;;;;;;;;11.78;100.00;96569.44;5066338;28;19982;-72
2022/11/01 04:13:27;;;;;;;;;;;;;;;11.79;100.00;96562.34;5065270;28;20425;-72
2022/11/01 04:21:39;;;;;;;;;;;;;;;11.82;100.00;96575.03;5070109;28;20428;-71
2022/11/01 04:24:05;;;;;;;;;;;;;;;11.82;100.00;96577.66;5065869;28;19964;-71
2022/11/01 04:26:31;;;;;;;;;;;;;;;11.84;100.00;96582.69;5064327;28;20431;-71
2022/11/01 04:28:57;;;;;;;;;;;;;;;11.82;100.00;96582.91;5065449;28;19953;-71
2022/11/01 04:31:24;;;;;;;;;;;;;;;11.84;100.00;96585.31;5064858;28;20046;-72
2022/11/01 04:33:50;;;;;;;;;;;;;;;11.85;100.00;96585.09;5069656;28;20394;-71
2022/11/01 04:36:16;;;;;;;;;;;;;;;11.88;100.00;96599.63;5044169;28;19984;-71
2022/11/01 04:38:42;;;;;;;;;;;;;;;11.89;100.00;96586.28;5065416;28;20408;-71
2022/11/01 04:41:08;;;;;;;;;;;;;;;11.94;100.00;96588.25;5060495;28;19966;-72
2022/11/01 04:43:34;;;;;;;;;;;;;;;11.96;100.00;96584.38;5069418;28;19957;-72
2022/11/01 04:46:00;;;;;;;;;;;;;;;12.03;100.00;96609.75;5064314;28;20002;-72
2022/11/01 04:48:26;;;;;;;;;;;;;;;12.07;100.00;96611.72;5065374;28;19985;-71
2022/11/01 04:50:52;;;;;;;;;;;;;;;12.13;100.00;96610.03;5061716;28;19971;-72
2022/11/01 04:53:18;;;;;;;;;;;;;;;12.18;100.00;96618.88;5062099;28;19968;-72
2022/11/01 04:55:44;;;;;;;;;;;;;;;12.22;100.00;96631.56;5067394;28;19957;-71
2022/11/01 04:58:10;;;;;;;;;;;;;;;12.24;100.00;96619.81;5063681;28;19962;-71
2022/11/01 05:00:36;;;;;;;;;;;;;;;12.27;100.00;96648.28;5067024;28;19966;-72
2022/11/01 05:03:03;;;;;;;;;;;;;;;12.31;100.00;96632.84;5061493;28;19949;-71
2022/11/01 05:05:29;;;;;;;;;;;;;;;12.38;100.00;96631.72;5063904;28;19960;-71
2022/11/01 05:08:06;;;;;;;;;;;;;;;12.42;100.00;96618.13;5063303;28;20435;-72
2022/11/01 05:10:32;;;;;;;;;;;;;;;12.47;100.00;96626.13;5066220;28;19980;-72
2022/11/01 05:12:58;;;;;;;;;;;;;;;12.49;100.00;96622.25;5048388;28;20422;-72
2022/11/01 05:15:24;;;;;;;;;;;;;;;12.51;100.00;96635.97;5060714;28;19960;-73
2022/11/01 05:17:50;;;;;;;;;;;;;;;12.54;100.00;96632.91;5066214;28;19950;-73
2022/11/01 05:20:16;;;;;;;;;;;;;;;12.54;100.00;96629.50;5067852;28;19967;-73
2022/11/01 05:22:42;;;;;;;;;;;;;;;12.56;100.00;96648.47;5065834;28;19955;-73
2022/11/01 05:25:08;;;;;;;;;;;;;;;12.56;100.00;96651.09;5065128;28;20006;-73
2022/11/01 05:27:37;;;;;;;;;;;;;;;12.57;100.00;96645.59;5061878;28;19952;-73
2022/11/01 05:30:04;;;;;;;;;;;;;;;12.57;100.00;96661.38;5064750;28;19980;-73
2022/11/01 05:32:29;;;;;;;;;;;;;;;12.56;100.00;96651.91;5064848;28;19951;-73
2022/11/01 05:34:55;;;;;;;;;;;;;;;12.56;100.00;96656.38;5066867;28;19964;-74
2022/11/01 05:37:21;;;;;;;;;;;;;;;12.55;100.00;96649.50;5060140;28;20013;-73
2022/11/01 05:39:47;;;;;;;;;;;;;;;12.53;100.00;96670.75;5060648;28;20001;-73
2022/11/01 05:42:13;;;;;;;;;;;;;;;12.53;100.00;96669.97;5066528;28;19982;-73
2022/11/01 05:44:39;;;;;;;;;;;;;;;12.52;100.00;96634.19;5065050;28;19955;-74
2022/11/01 05:47:05;;;;;;;;;;;;;;;12.50;100.00;96634.38;5064983;28;20006;-74
2022/11/01 05:49:31;;;;;;;;;;;;;;;12.45;100.00;96642.16;5056392;28;19966;-73
2022/11/01 05:51:57;;;;;;;;;;;;;;;12.44;100.00;96664.22;5060880;28;19992;-73
2022/11/01 05:54:23;;;;;;;;;;;;;;;12.43;100.00;96653.91;5062781;28;19950;-73
2022/11/01 05:56:49;;;;;;;;;;;;;;;12.41;100.00;96630.50;5066248;28;20006;-72
2022/11/01 05:59:14;;;;;;;;;;;;;;;12.41;100.00;96634.94;5067305;28;20394;-73
2022/11/01 06:01:40;;;;;;;;;;;;;;;12.42;100.00;96628.66;5060034;28;20056;-73
2022/11/01 06:04:06;;;;;;;;;;;;;;;12.43;100.00;96611.84;5064473;28;20394;-73
2022/11/01 06:06:33;;;;;;;;;;;;;;;12.43;100.00;96602.13;5066041;28;20044;-73
2022/11/01 06:08:59;;;;;;;;;;;;;;;12.46;100.00;96606.94;5068688;28;19963;-73
2022/11/01 06:11:25;;;;;;;;;;;;;;;12.50;100.00;96607.28;5063627;28;19968;-73
2022/11/01 06:13:52;;;;;;;;;;;;;;;12.53;100.00;96649.72;5063012;28;19963;-73
2022/11/01 06:16:18;;;;;;;;;;;;;;;12.57;100.00;96642.97;5057106;28;19958;-74
2022/11/01 06:18:44;;;;;;;;;;;;;;;12.60;100.00;96652.28;5066331;28;19995;-73
2022/11/01 06:21:10;;;;;;;;;;;;;;;12.62;100.00;96654.66;5068616;28;19963;-73
2022/11/01 06:23:35;;;;;;;;;;;;;;;12.62;100.00;96675.69;5061513;28;19955;-73
2022/11/01 06:26:02;;;;;;;;;;;;;;;12.63;100.00;96672.06;5061542;28;20365;-73
2022/11/01 06:28:28;;;;;;;;;;;;;;;12.64;100.00;96692.06;5068937;28;19947;-73
2022/11/01 06:30:54;;;;;;;;;;;;;;;12.62;100.00;96688.84;5065879;28;20033;-73
2022/11/01 06:33:20;;;;;;;;;;;;;;;12.63;100.00;96704.44;5062638;28;19958;-73
2022/11/01 06:35:46;;;;;;;;;;;;;;;12.64;100.00;96707.84;5065043;28;19961;-73
2022/11/01 06:38:12;;;;;;;;;;;;;;;12.65;100.00;96709.47;5060848;28;20310;-73
2022/11/01 06:40:38;;;;;;;;;;;;;;;12.64;100.00;96708.69;5065030;28;19951;-73
2022/11/01 06:43:04;;;;;;;;;;;;;;;12.64;100.00;96705.22;5068269;28;20387;-73
2022/11/01 06:45:31;;;;;;;;;;;;;;;12.65;100.00;96709.47;5061140;28;19962;-73
2022/11/01 06:47:57;;;;;;;;;;;;;;;12.64;100.00;96713.94;5062467;28;20395;-73
2022/11/01 06:50:23;;;;;;;;;;;;;;;12.65;100.00;96722.63;5063447;28;20436;-74
2022/11/01 06:52:49;;;;;;;;;;;;;;;12.66;100.00;96721.59;5058224;28;20314;-74
2022/11/01 06:55:15;;;;;;;;;;;;;;;12.65;100.00;96717.38;5043833;28;20010;-74
2022/11/01 06:57:41;;;;;;;;;;;;;;;12.65;100.00;96707.63;5055552;28;19954;-74
2022/11/01 07:00:08;;;;;;;;;;;;;;;12.63;100.00;96701.78;5065418;28;19955;-74
2022/11/01 07:02:34;;;;;;;;;;;;;;;12.63;100.00;96699.16;5068682;28;20019;-74
2022/11/01 07:05:00;;;;;;;;;;;;;;;12.62;100.00;96702.00;5063560;28;19955;-74
2022/11/01 07:07:26;;;;;;;;;;;;;;;12.63;100.00;96708.88;5066234;28;19988;-74
2022/11/01 07:09:52;;;;;;;;;;;;;;;12.65;100.00;96707.63;5067123;28;19974;-74
2022/11/01 07:12:18;;;;;;;;;;;;;;;12.67;100.00;96717.94;5066894;28;20417;-73
2022/11/01 07:14:43;;;;;;;;;;;;;;;12.68;100.00;96712.47;5068404;28;19981;-73
2022/11/01 07:17:09;;;;;;;;;;;;;;;12.74;100.00;96723.91;5059647;28;19959;-73
2022/11/01 07:19:35;;;;;;;;;;;;;;;12.77;100.00;96728.72;5065449;28;19987;-73
2022/11/01 07:22:01;;;;;;;;;;;;;;;12.81;100.00;96732.53;5067659;28;20426;-73
2022/11/01 07:24:27;;;;;;;;;;;;;;;12.84;100.00;96745.22;5069493;28;20010;-73
2022/11/01 07:26:53;;;;;;;;;;;;;;;12.88;100.00;96738.47;5062014;28;19981;-73
2022/11/01 07:29:19;;;;;;;;;;;;;;;12.92;100.00;96752.81;5068721;28;20412;-73
2022/11/01 07:31:46;;;;;;;;;;;;;;;12.95;100.00;96747.06;5068985;28;20330;-73
2022/11/01 07:34:12;;;;;;;;;;;;;;;12.98;100.00;96741.38;5068042;28;19956;-73
2022/11/01 07:36:38;;;;;;;;;;;;;;;13.03;100.00;96745.94;5061415;28;19961;-73
2022/11/01 07:39:04;;;;;;;;;;;;;;;13.09;100.00;96749.53;5065010;28;19954;-73
2022/11/01 07:41:30;;;;;;;;;;;;;;;13.12;100.00;96752.50;5068486;28;19953;-73
2022/11/01 07:43:56;;;;;;;;;;;;;;;13.16;100.00;96742.31;5069121;28;19964;-75
2022/11/01 07:46:22;;;;;;;;;;;;;;;13.18;100.00;96750.78;5066204;28;19968;-74
2022/11/01 07:48:49;;;;;;;;;;;;;;;13.19;100.00;96753.19;5062896;28;20420;-73
2022/11/01 07:51:16;;;;;;;;;;;;;;;13.24;100.00;96760.41;5064937;28;19965;-74
2022/11/01 07:53:41;;;;;;;;;;;;;;;13.27;100.00;96767.88;5063025;28;20026;-73
2022/11/01 07:56:08;;;;;;;;;;;;;;;13.32;100.00;96775.94;5068901;28;20397;-73
2022/11/01 07:58:34;;;;;;;;;;;;;;;13.36;100.00;96769.16;5066176;28;19953;-73
2022/11/01 08:01:00;;;;;;;;;;;;;;;13.40;100.00;96769.53;5060191;28;19957;-73
2022/11/01 08:03:26;;;;;;;;;;;;;;;13.44;100.00;96768.03;5063988;28;20424;-73
2022/11/01 08:05:52;;;;;;;;;;;;;;;13.48;100.00;96765.75;5067684;28;19953;-73
2022/11/01 08:08:18;;;;;;;;;;;;;;;13.49;100.00;96765.50;5068565;28;19982;-73
2022/11/01 08:10:44;;;;;;;;;;;;;;;13.52;100.00;96772.97;5064513;28;20437;-73
2022/11/01 08:13:17;;;;;;;;;;;;;;;13.54;100.00;96765.66;5061972;28;20397;-73
2022/11/01 08:15:43;;;;;;;;;;;;;;;13.57;100.00;96774.94;5061396;28;19954;-73
2022/11/01 08:18:10;;;;;;;;;;;;;;;13.60;100.00;96780.53;5071823;28;20333;-73
2022/11/01 08:20:35;;;;;;;;;;;;;;;13.65;100.00;96781.66;5060843;28;19959;-73
2022/11/01 08:23:02;;;;;;;;;;;;;;;13.67;100.00;96774.34;5064210;28;19953;-73
2022/11/01 08:25:28;;;;;;;;;;;;;;;13.70;100.00;96790.50;5062092;28;19967;-73
2022/11/01 08:27:53;;;;;;;;;;;;;;;13.74;100.00;96783.75;5061585;28;20001;-73
2022/11/01 08:30:20;;;;;;;;;;;;;;;13.78;100.00;96790.16;5046151;28;20020;-73
2022/11/01 08:32:46;;;;;;;;;;;;;;;13.84;100.00;96783.19;5069434;28;19962;-73
2022/11/01 08:35:12;;;;;;;;;;;;;;;13.89;100.00;96782.47;5058257;28;20527;-73
2022/11/01 08:37:46;;;;;;;;;;;;;;;13.94;100.00;96793.13;5061989;28;19969;-73
2022/11/01 08:40:12;;;;;;;;;;;;;;;13.97;100.00;96792.69;5064530;28;19946;-73
2022/11/01 08:42:38;;;;;;;;;;;;;;;13.99;100.00;96780.06;5069670;28;19998;-73
2022/11/01 08:45:05;;;;;;;;;;;;;;;13.98;100.00;96774.00;5059724;28;19951;-73
2022/11/01 08:47:30;;;;;;;;;;;;;;;13.98;99.88;96771.38;5064789;28;19964;-73
2022/11/01 08:49:56;;;;;;;;;;;;;;;13.98;100.00;96775.81;5065607;28;19963;-73
2022/11/01 08:52:22;;;;;;;;;;;;;;;13.96;100.00;96785.78;5064463;28;19988;-73
2022/11/01 08:54:48;;;;;;;;;;;;;;;13.93;100.00;96791.53;5063273;28;19949;-73
2022/11/01 08:57:14;;;;;;;;;;;;;;;13.94;100.00;96799.22;5062609;28;19957;-73
2022/11/01 08:59:40;;;;;;;;;;;;;;;13.93;100.00;96794.19;5065922;28;20426;-73
2022/11/01 09:02:10;;;;;;;;;;;;;;;13.93;100.00;96807.34;5070012;28;19955;-73
2022/11/01 09:04:36;;;;;;;;;;;;;;;13.92;100.00;96805.75;5061887;28;19956;-73
2022/11/01 09:07:02;;;;;;;;;;;;;;;13.94;100.00;96809.78;5059926;28;20426;-73
2022/11/01 09:09:28;;;;;;;;;;;;;;;13.94;100.00;96804.50;5068506;28;19956;-73
2022/11/01 09:11:54;;;;;;;;;;;;;;;13.99;100.00;96811.72;5064034;28;20325;-73
2022/11/01 09:14:23;;;;;;;;;;;;;;;14.04;100.00;96816.28;5061899;28;20416;-73
2022/11/01 09:16:49;;;;;;;;;;;;;;;14.10;100.00;96818.00;5060472;28;19957;-73
2022/11/01 09:19:15;;;;;;;;;;;;;;;14.17;100.00;96806.31;5063957;28;20391;-73
2022/11/01 09:21:42;;;;;;;;;;;;;;;14.30;100.00;96821.09;5064255;28;20430;-73
2022/11/01 09:24:09;;;;;;;;;;;;;;;14.57;100.00;96817.94;5062574;28;19952;-73
2022/11/01 09:26:35;;;;;;;;;;;;;;;14.85;100.00;96822.47;5064092;28;19949;-74
2022/11/01 09:29:01;;;;;;;;;;;;;;;15.05;98.53;96813.28;5064559;28;20406;-74
2022/11/01 09:31:27;;;;;;;;;;;;;;;15.19;97.15;96807.47;5060581;28;19999;-74
2022/11/01 09:33:54;;;;;;;;;;;;;;;15.34;95.18;96795.56;5069146;28;20048;-73
2022/11/01 09:36:20;;;;;;;;;;;;;;;15.55;95.01;96786.91;5063468;28;19955;-73
2022/11/01 09:38:46;;;;;;;;;;;;;;;15.79;91.21;96777.00;5045873;28;19955;-73
2022/11/01 09:41:20;;;;;;;;;;;;;;;16.00;90.35;96769.31;5062189;28;20014;-73
2022/11/01 09:43:46;;;;;;;;;;;;;;;16.09;87.71;96759.16;5067102;28;19955;-73
2022/11/01 09:46:16;;;;;;;;;;;;;;;16.18;89.73;96773.53;5064132;28;20326;-73
2022/11/01 09:48:43;;;;;;;;;;;;;;;16.29;90.26;96767.31;5057589;28;20399;-73
2022/11/01 09:51:11;;;;;;;;;;;;;;;16.41;84.62;96732.78;5053407;28;20308;-73
2022/11/01 09:53:37;;;;;;;;;;;;;;;16.52;87.82;96757.53;5048519;28;20333;-73
2022/11/01 09:56:21;;;;;;;;;;;;;;;16.59;87.07;96758.16;5059123;28;19950;-73
2022/11/01 09:59:05;;;;;;;;;;;;;;;16.57;84.19;96737.22;5058842;28;19965;-73
2022/11/01 10:01:47;;;;;;;;;;;;;;;16.58;88.06;96765.28;5063280;28;19951;-73
2022/11/01 10:04:25;;;;;;;;;;;;;;;16.61;85.02;96745.47;5064350;28;20425;-73
2022/11/01 10:06:58;;;;;;;;;;;;;;;16.64;87.19;96766.13;5067362;28;19986;-73
2022/11/01 10:09:27;;;;;;;;;;;;;;;16.66;85.19;96750.00;5062028;28;19953;-73
2022/11/01 10:11:53;;;;;;;;;;;;;;;16.67;85.34;96760.34;5061203;28;19978;-73
2022/11/01 10:14:38;;;;;;;;;;;;;;;16.68;82.38;96739.97;5063984;28;19958;-73
2022/11/01 10:17:14;;;;;;;;;;;;;;;16.70;83.90;96757.22;5064555;28;19960;-73
2022/11/01 10:19:46;;;;;;;;;;;;;;;16.71;83.86;96763.28;5066314;28;19959;-73
2022/11/01 10:22:17;;;;;;;;;;;;;;;16.72;83.06;96759.63;5066182;28;19965;-73
2022/11/01 10:24:49;;;;;;;;;;;;;;;16.73;85.47;96777.88;5065764;28;20055;-73
2022/11/01 10:27:25;;;;;;;;;;;;;;;16.75;83.15;96767.03;5056754;28;19960;-73
2022/11/01 10:29:59;;;;;;;;;;;;;;;16.71;81.51;96763.28;5062817;28;19962;-73
2022/11/01 10:32:40;;;;;;;;;;;;;;;16.70;83.79;96775.75;5064365;28;19975;-73
2022/11/01 10:35:32;;;;;;;;;;;;;;;16.73;83.60;96782.38;5070480;28;19958;-72
2022/11/01 10:38:21;;;;;;;;;;;;;;;16.70;80.95;96762.50;5057025;28;19962;-75
2022/11/01 10:40:54;;;;;;;;;;;;;;;16.73;83.20;96785.03;5065638;28;19958;-74
2022/11/01 10:43:21;;;;;;;;;;;;;;;16.72;79.96;96764.91;5064698;28;19953;-73
2022/11/01 10:45:50;;;;;;;;;;;;;;;16.72;82.27;96781.59;5075128;28;20410;-73
2022/11/01 10:48:26;;;;;;;;;;;;;;;16.72;79.84;96751.66;5065233;28;20048;-73
2022/11/01 10:51:00;;;;;;;;;;;;;;;16.71;80.34;96769.38;5065098;28;19983;-73
2022/11/01 10:53:27;;;;;;;;;;;;;;;16.73;80.57;96769.94;5062942;28;19979;-72
2022/11/01 10:55:58;;;;;;;;;;;;;;;16.77;78.75;96759.66;5065461;28;19945;-72
2022/11/01 10:58:53;;;;;;;;;;;;;;;16.84;80.49;96773.53;5068647;28;19953;-72
2022/11/01 11:01:22;;;;;;;;;;;;;;;16.89;78.78;96755.03;5047115;28;20433;-72
2022/11/01 11:03:49;;;;;;;;;;;;;;;16.93;78.03;96761.44;5049628;28;19948;-72
2022/11/01 11:06:15;;;;;;;;;;;;;;;16.98;79.06;96772.06;5061940;28;19960;-72
2022/11/01 11:08:43;;;;;;;;;;;;;;;17.06;80.91;96791.22;5049556;28;19994;-72
2022/11/01 11:11:13;;;;;;;;;;;;;;;17.11;78.08;96768.22;5071239;28;19979;-73
2022/11/01 11:13:47;;;;;;;;;;;;;;;17.15;77.12;96749.97;5065832;28;20413;-72
2022/11/01 11:16:35;;;;;;;;;;;;;;;17.19;77.99;96772.25;5065797;28;19953;-72
2022/11/01 11:19:11;;;;;;;;;;;;;;;17.19;80.13;96791.59;5064621;28;20406;-72
2022/11/01 11:21:36;;;;;;;;;;;;;;;17.17;81.49;96800.88;5065026;28;19957;-72
2022/11/01 11:24:03;;;;;;;;;;;;;;;17.13;80.95;96787.31;5061704;28;19950;-72
2022/11/01 11:26:37;;;;;;;;;;;;;;;17.06;80.11;96784.06;5066325;28;19954;-72
2022/11/01 11:29:03;;;;;;;;;;;;;;;16.99;79.68;96786.13;5064260;28;20330;-72
2022/11/01 11:31:31;;;;;;;;;;;;;;;16.92;82.59;96807.50;5068498;28;19970;-72
2022/11/01 11:33:59;;;;;;;;;;;;;;;16.86;82.18;96795.25;5067943;28;19952;-72
2022/11/01 11:36:28;;;;;;;;;;;;;;;16.80;80.55;96789.13;5060803;28;19950;-72
2022/11/01 11:38:54;;;;;;;;;;;;;;;16.75;81.63;96796.19;5066726;28;19949;-72
2022/11/01 11:41:28;;;;;;;;;;;;;;;16.70;81.76;96796.94;5069200;28;19958;-72
2022/11/01 11:43:54;;;;;;;;;;;;;;;16.67;81.16;96794.75;5067265;28;20365;-72
2022/11/01 11:46:23;;;;;;;;;;;;;;;16.59;80.33;96785.44;5065289;28;19959;-72
2022/11/01 11:49:03;;;;;;;;;;;;;;;16.52;81.86;96798.03;5065061;28;19974;-72
2022/11/01 11:51:31;;;;;;;;;;;;;;;16.49;81.08;96790.59;5060951;28;20057;-72
2022/11/01 11:54:07;;;;;;;;;;;;;;;16.54;83.69;96811.03;5064337;28;19955;-72
2022/11/01 11:56:33;;;;;;;;;;;;;;;16.61;81.05;96793.91;5059030;28;19952;-73
2022/11/01 11:59:05;;;;;;;;;;;;;;;16.70;80.09;96777.59;5063168;28;19972;-72
2022/11/01 12:01:32;;;;;;;;;;;;;;;16.80;80.31;96781.19;5065189;28;19955;-72
2022/11/01 12:04:05;;;;;;;;;;;;;;;16.89;80.80;96786.03;5046794;28;19954;-72
2022/11/01 12:06:36;;;;;;;;;;;;;;;16.92;80.34;96781.00;5066529;28;19953;-72
2022/11/01 12:09:02;;;;;;;;;;;;;;;17.00;80.68;96783.22;5064737;28;19959;-71
2022/11/01 12:11:39;;;;;;;;;;;;;;;17.12;76.76;96748.63;5066362;28;19966;-71
2022/11/01 12:14:16;;;;;;;;;;;;;;;17.28;75.86;96738.13;5067673;28;20301;-72
2022/11/01 12:16:42;;;;;;;;;;;;;;;17.41;74.96;96735.88;5063793;28;19963;-72
2022/11/01 12:19:22;;;;;;;;;;;;;;;17.40;74.47;96736.13;5063338;28;20330;-72
2022/11/01 12:21:48;;;;;;;;;;;;;;;17.34;73.12;96727.31;5068197;28;19943;-72
2022/11/01 12:24:14;;;;;;;;;;;;;;;17.41;76.02;96759.72;5070702;28;20342;-72
2022/11/01 12:26:41;;;;;;;;;;;;;;;17.51;72.00;96716.56;5060609;28;19982;-72
2022/11/01 12:29:28;;;;;;;;;;;;;;;17.59;72.36;96732.00;5060508;28;19962;-72
2022/11/01 12:31:57;;;;;;;;;;;;;;;17.65;73.47;96728.31;5066538;28;19961;-71
2022/11/01 12:34:25;;;;;;;;;;;;;;;17.69;71.15;96717.22;5067184;28;19957;-71
2022/11/01 12:36:54;;;;;;;;;;;;;;;17.63;70.81;96709.22;5063975;28;19963;-71
2022/11/01 12:39:34;;;;;;;;;;;;;;;17.50;70.15;96693.75;5062824;28;19957;-71
2022/11/01 12:42:03;;;;;;;;;;;;;;;17.44;69.58;96706.19;5061276;28;19964;-71
2022/11/01 12:44:40;;;;;;;;;;;;;;;17.53;74.31;96733.00;5069481;28;19949;-71
2022/11/01 12:47:19;;;;;;;;;;;;;;;17.58;72.51;96725.09;5064447;28;19956;-71
2022/11/01 12:50:03;;;;;;;;;;;;;;;17.59;73.05;96725.91;5054269;28;19947;-71
2022/11/01 12:52:38;;;;;;;;;;;;;;;17.61;70.53;96713.19;5050981;28;19971;-71
2022/11/01 12:55:17;;;;;;;;;;;;;;;17.62;68.09;96699.69;5065514;28;19958;-71